Time;durP1;ratioP1;P1;durP2;ratioP2;P2;SDS_P1;SDS_P2;PMS_P1;PMS_P2;Temp;Humidity;BMP_temperature;BMP_pressure;BME280_temperature;BME280_humidity;BME280_pressure;Samples;Min_cycle;Max_cycle;Signal;HPM_P1;HPM_P2
2021/12/03 00:01:54;;;;;;;14.90;13.90;;;1.90;99.90;;;;;;6216337;23;20412;-77
2021/12/03 00:04:21;;;;;;;14.63;13.63;;;1.90;99.90;;;;;;6214011;23;20416;-77
2021/12/03 00:06:48;;;;;;;14.87;13.87;;;1.80;99.90;;;;;;6214496;23;20426;-78
2021/12/03 00:09:16;;;;;;;14.80;13.80;;;1.80;99.90;;;;;;6216165;23;20407;-77
2021/12/03 00:11:43;;;;;;;15.50;14.40;;;1.70;99.90;;;;;;6189771;23;20407;-77
2021/12/03 00:14:10;;;;;;;15.40;14.23;;;1.70;99.90;;;;;;6214352;23;20822;-77
2021/12/03 00:16:37;;;;;;;15.73;14.47;;;1.70;99.90;;;;;;6189054;23;20416;-77
2021/12/03 00:19:03;;;;;;;15.57;14.40;;;1.60;99.90;;;;;;6190683;23;20464;-78
2021/12/03 00:21:30;;;;;;;15.40;14.20;;;1.60;99.90;;;;;;6219026;23;20431;-78
2021/12/03 00:23:57;;;;;;;15.97;14.70;;;1.60;99.90;;;;;;6191547;23;20420;-78
2021/12/03 00:26:25;;;;;;;15.97;14.77;;;1.50;99.90;;;;;;6218175;23;20441;-77
2021/12/03 00:28:52;;;;;;;15.20;14.03;;;1.50;99.90;;;;;;6192282;23;20431;-78
2021/12/03 00:31:20;;;;;;;15.17;14.10;;;1.50;99.90;;;;;;6191409;23;20424;-78
2021/12/03 00:33:47;;;;;;;15.60;14.50;;;1.40;99.90;;;;;;6218471;23;20389;-77
2021/12/03 00:36:14;;;;;;;15.10;13.90;;;1.40;99.90;;;;;;6190919;23;20421;-78
2021/12/03 00:38:43;;;;;;;16.47;15.07;;;1.40;99.90;;;;;;6190612;23;20443;-78
2021/12/03 00:41:13;;;;;;;15.07;14.03;;;1.40;99.90;;;;;;6216888;23;20459;-78
2021/12/03 00:43:44;;;;;;;16.43;15.13;;;1.30;99.90;;;;;;6191167;23;20427;-78
2021/12/03 00:46:14;;;;;;;15.30;14.20;;;1.30;99.90;;;;;;6190586;23;20489;-78
2021/12/03 00:48:41;;;;;;;15.93;14.70;;;1.30;99.90;;;;;;6190312;23;20431;-78
2021/12/03 00:51:10;;;;;;;15.80;14.60;;;1.20;99.90;;;;;;6190426;23;20735;-78
2021/12/03 00:53:38;;;;;;;16.17;14.80;;;1.20;99.90;;;;;;6189983;23;20474;-77
2021/12/03 00:56:05;;;;;;;16.57;15.27;;;1.20;99.90;;;;;;6216935;23;20725;-78
2021/12/03 00:58:32;;;;;;;16.60;15.20;;;1.10;99.90;;;;;;6216446;23;20402;-78
2021/12/03 01:01:01;;;;;;;17.03;15.60;;;1.10;99.90;;;;;;6189799;23;20497;-77
2021/12/03 01:03:29;;;;;;;16.90;15.53;;;1.10;99.90;;;;;;6217284;23;20391;-78
2021/12/03 01:05:55;;;;;;;16.63;15.37;;;1.10;99.90;;;;;;6216523;23;20446;-77
2021/12/03 01:08:23;;;;;;;16.13;14.93;;;1.10;99.90;;;;;;6188683;23;20479;-77
2021/12/03 01:10:50;;;;;;;16.40;15.20;;;1.10;99.90;;;;;;6189672;23;20417;-77
2021/12/03 01:13:17;;;;;;;16.37;15.17;;;1.00;99.90;;;;;;6216258;23;20438;-77
2021/12/03 01:15:44;;;;;;;16.60;15.30;;;1.00;99.90;;;;;;6216186;23;20445;-77
2021/12/03 01:18:13;;;;;;;17.40;16.10;;;1.00;99.90;;;;;;6215787;23;20388;-77
2021/12/03 01:20:41;;;;;;;18.17;16.63;;;1.10;99.90;;;;;;6211152;23;20522;-77
2021/12/03 01:23:10;;;;;;;17.03;15.63;;;1.10;99.90;;;;;;6214008;23;20382;-77
2021/12/03 01:25:38;;;;;;;16.60;15.30;;;1.10;99.90;;;;;;6187630;23;20419;-78
2021/12/03 01:28:05;;;;;;;16.83;15.53;;;1.10;99.90;;;;;;6213868;23;20392;-77
2021/12/03 01:30:33;;;;;;;16.67;15.37;;;1.10;99.90;;;;;;6213646;23;20404;-77
2021/12/03 01:33:05;;;;;;;17.50;16.20;;;1.10;99.90;;;;;;6212441;23;20416;-77
2021/12/03 01:35:34;;;;;;;17.50;16.00;;;1.20;99.90;;;;;;6212348;23;20805;-77
2021/12/03 01:38:02;;;;;;;17.93;16.43;;;1.30;99.90;;;;;;6213782;23;20394;-77
2021/12/03 01:40:29;;;;;;;17.33;16.03;;;1.30;99.90;;;;;;6214307;23;20434;-77
2021/12/03 01:42:57;;;;;;;14.63;13.43;;;1.40;99.90;;;;;;6187485;23;20767;-77
2021/12/03 01:45:26;;;;;;;17.40;15.93;;;1.40;99.90;;;;;;6214085;23;20392;-77
2021/12/03 01:47:53;;;;;;;15.80;14.37;;;1.40;99.90;;;;;;6212114;23;20417;-77
2021/12/03 01:50:25;;;;;;;14.93;13.67;;;1.40;99.90;;;;;;6213722;23;20416;-76
2021/12/03 01:52:53;;;;;;;15.03;13.60;;;1.40;99.90;;;;;;6212315;23;20468;-77
2021/12/03 01:55:20;;;;;;;14.23;13.13;;;1.50;99.90;;;;;;6213929;23;20455;-77
2021/12/03 01:57:48;;;;;;;14.47;13.13;;;1.50;99.90;;;;;;6187076;23;20425;-78
2021/12/03 02:00:18;;;;;;;15.73;14.47;;;1.50;99.90;;;;;;6213766;23;20411;-77
2021/12/03 02:02:45;;;;;;;16.87;15.57;;;1.50;99.90;;;;;;6213892;23;20464;-77
2021/12/03 02:05:12;;;;;;;14.40;13.30;;;1.60;99.90;;;;;;6213777;23;20395;-77
2021/12/03 02:07:39;;;;;;;13.83;12.63;;;1.60;99.90;;;;;;6212094;23;20409;-77
2021/12/03 02:10:08;;;;;;;17.27;15.97;;;1.70;99.90;;;;;;6212201;23;20437;-78
2021/12/03 02:12:35;;;;;;;16.50;15.33;;;1.70;99.90;;;;;;6213812;23;20478;-77
2021/12/03 02:15:02;;;;;;;17.13;15.93;;;1.70;99.90;;;;;;6213858;23;20393;-77
2021/12/03 02:17:29;;;;;;;16.90;15.60;;;1.70;99.90;;;;;;6186705;23;20412;-77
2021/12/03 02:19:56;;;;;;;17.43;15.90;;;1.70;99.90;;;;;;6210961;23;20442;-77
2021/12/03 02:22:24;;;;;;;17.43;16.03;;;1.80;99.90;;;;;;6186963;23;20837;-78
2021/12/03 02:24:51;;;;;;;16.90;15.70;;;1.80;99.90;;;;;;6187213;23;20407;-77
2021/12/03 02:27:18;;;;;;;17.20;15.90;;;1.80;99.90;;;;;;6211905;23;20742;-77
2021/12/03 02:29:45;;;;;;;17.27;15.97;;;1.80;99.90;;;;;;6213653;23;20410;-77
2021/12/03 02:32:12;;;;;;;17.27;15.70;;;1.70;99.90;;;;;;6213730;23;20884;-77
2021/12/03 02:34:39;;;;;;;16.80;15.50;;;1.80;99.90;;;;;;6212122;23;20465;-77
2021/12/03 02:37:06;;;;;;;17.23;15.83;;;1.70;99.90;;;;;;6211841;23;20416;-77
2021/12/03 02:39:34;;;;;;;16.20;15.00;;;1.70;99.90;;;;;;6213476;23;20964;-77
2021/12/03 02:42:01;;;;;;;16.73;15.53;;;1.60;99.90;;;;;;6188199;23;20445;-77
2021/12/03 02:44:28;;;;;;;17.40;16.10;;;1.60;99.90;;;;;;6214195;23;20417;-77
2021/12/03 02:46:55;;;;;;;17.03;15.77;;;1.50;99.90;;;;;;6215371;23;20879;-77
2021/12/03 02:49:22;;;;;;;16.93;15.53;;;1.50;99.90;;;;;;6213827;23;20433;-77
2021/12/03 02:51:49;;;;;;;15.87;14.77;;;1.40;99.90;;;;;;6215705;23;20394;-77
2021/12/03 02:54:16;;;;;;;16.13;15.03;;;1.40;99.90;;;;;;6189057;23;20438;-77
2021/12/03 02:56:44;;;;;;;16.00;14.80;;;1.40;99.90;;;;;;6215132;23;20982;-77
2021/12/03 02:59:11;;;;;;;16.53;15.33;;;1.40;99.90;;;;;;6215977;23;20902;-77
2021/12/03 03:01:38;;;;;;;15.83;14.63;;;1.40;99.90;;;;;;6214028;23;20445;-77
2021/12/03 03:04:05;;;;;;;16.23;15.13;;;1.40;99.90;;;;;;6213852;23;20415;-77
2021/12/03 03:06:34;;;;;;;17.30;15.80;;;1.30;99.90;;;;;;6188612;23;20472;-76
2021/12/03 03:09:02;;;;;;;16.73;15.53;;;1.30;99.90;;;;;;6213825;23;20799;-77
2021/12/03 03:11:29;;;;;;;16.70;15.50;;;1.30;99.90;;;;;;6215416;23;20845;-78
2021/12/03 03:13:58;;;;;;;16.97;15.77;;;1.20;99.90;;;;;;6215484;23;20388;-77
2021/12/03 03:16:25;;;;;;;16.43;15.23;;;1.10;99.90;;;;;;6213693;23;20424;-77
2021/12/03 03:18:51;;;;;;;17.90;16.60;;;1.10;99.90;;;;;;6215129;23;20387;-76
2021/12/03 03:21:19;;;;;;;16.53;15.23;;;1.10;99.90;;;;;;6215227;23;20485;-77
2021/12/03 03:23:46;;;;;;;17.03;15.73;;;1.10;99.90;;;;;;6215048;23;20391;-77
2021/12/03 03:26:13;;;;;;;16.83;15.57;;;1.10;99.90;;;;;;6213746;23;20893;-78
2021/12/03 03:28:41;;;;;;;17.07;15.77;;;1.10;99.90;;;;;;6215063;23;20390;-77
2021/12/03 03:31:09;;;;;;;17.27;16.03;;;1.10;99.90;;;;;;6215229;23;20414;-77
2021/12/03 03:33:37;;;;;;;18.67;17.03;;;1.10;99.90;;;;;;6188992;23;20732;-77
2021/12/03 03:36:04;;;;;;;17.47;16.07;;;1.10;99.90;;;;;;6215550;23;20790;-78
2021/12/03 03:38:31;;;;;;;16.23;15.13;;;1.00;99.90;;;;;;6215290;23;20391;-77
2021/12/03 03:40:58;;;;;;;17.03;15.77;;;1.00;99.90;;;;;;6219267;23;20489;-77
2021/12/03 03:43:25;;;;;;;17.47;16.27;;;1.00;99.90;;;;;;6188452;23;20415;-78
2021/12/03 03:45:52;;;;;;;18.70;16.90;;;1.00;99.90;;;;;;6213815;23;20473;-78
2021/12/03 03:48:23;;;;;;;17.10;15.90;;;1.00;99.90;;;;;;6219667;23;20505;-78
2021/12/03 03:50:50;;;;;;;18.37;17.03;;;1.00;99.90;;;;;;6215719;23;20407;-78
2021/12/03 03:53:18;;;;;;;18.40;16.90;;;1.00;99.90;;;;;;6215002;23;20395;-77
2021/12/03 03:55:45;;;;;;;17.63;16.23;;;1.00;99.90;;;;;;6187992;23;20897;-77
2021/12/03 03:58:12;;;;;;;17.63;16.23;;;1.00;99.90;;;;;;6215354;23;20391;-77
2021/12/03 04:00:43;;;;;;;17.70;16.40;;;0.90;99.90;;;;;;6214554;23;20446;-78
2021/12/03 04:03:10;;;;;;;17.20;16.00;;;1.00;99.90;;;;;;6189589;23;20846;-78
2021/12/03 04:05:39;;;;;;;17.73;16.33;;;1.00;99.90;;;;;;6187684;23;20423;-77
2021/12/03 04:08:06;;;;;;;17.70;16.40;;;1.00;99.90;;;;;;6215220;23;20387;-78
2021/12/03 04:10:34;;;;;;;18.90;17.50;;;1.00;99.90;;;;;;6216671;23;20914;-77
2021/12/03 04:13:00;;;;;;;19.00;17.50;;;1.00;99.90;;;;;;6215310;23;20384;-77
2021/12/03 04:15:27;;;;;;;19.17;17.60;;;1.10;99.90;;;;;;6214820;23;20398;-78
2021/12/03 04:17:54;;;;;;;18.77;17.10;;;1.00;99.90;;;;;;6213994;23;20396;-76
2021/12/03 04:20:22;;;;;;;18.70;17.30;;;1.10;99.90;;;;;;6213535;23;20989;-76
2021/12/03 04:22:51;;;;;;;18.50;16.97;;;1.10;99.90;;;;;;6185213;23;20954;-80
2021/12/03 04:25:19;;;;;;;19.63;18.10;;;1.20;99.90;;;;;;6211515;23;20388;-77
2021/12/03 04:27:47;;;;;;;19.07;17.77;;;1.20;99.90;;;;;;6210690;23;20473;-77
2021/12/03 04:30:17;;;;;;;19.37;17.97;;;1.20;99.90;;;;;;6210526;23;20827;-77
2021/12/03 04:32:45;;;;;;;17.67;16.37;;;1.20;99.90;;;;;;6212286;23;20794;-77
2021/12/03 04:35:12;;;;;;;18.33;17.10;;;1.10;99.90;;;;;;6212785;23;20443;-77
2021/12/03 04:37:39;;;;;;;18.60;17.20;;;1.10;99.90;;;;;;6212366;23;20416;-77
2021/12/03 04:40:10;;;;;;;18.47;17.07;;;1.10;99.90;;;;;;6187924;23;20929;-77
2021/12/03 04:42:37;;;;;;;18.57;17.13;;;1.10;99.90;;;;;;6187927;23;20851;-77
2021/12/03 04:45:05;;;;;;;17.30;15.90;;;1.10;99.90;;;;;;6212367;23;20918;-77
2021/12/03 04:47:32;;;;;;;18.30;17.00;;;1.10;99.90;;;;;;6187643;23;20415;-77
2021/12/03 04:49:59;;;;;;;18.10;16.70;;;1.10;99.90;;;;;;6214569;23;20408;-77
2021/12/03 04:52:27;;;;;;;17.07;15.87;;;1.20;99.90;;;;;;6214436;23;20388;-77
2021/12/03 04:54:54;;;;;;;17.97;16.60;;;1.20;99.90;;;;;;6214593;23;20426;-78
2021/12/03 04:57:22;;;;;;;17.80;16.57;;;1.20;99.90;;;;;;6213021;23;20474;-78
2021/12/03 04:59:49;;;;;;;17.13;15.93;;;1.20;99.90;;;;;;6188020;23;21018;-77
2021/12/03 05:02:18;;;;;;;19.40;18.00;;;1.20;99.90;;;;;;6213120;23;20438;-76
2021/12/03 05:04:45;;;;;;;19.30;17.80;;;1.20;99.90;;;;;;6212812;23;20411;-76
2021/12/03 05:07:29;;;;;;;19.03;17.43;;;1.20;99.90;;;;;;6212400;23;20418;-77
2021/12/03 05:09:56;;;;;;;18.97;17.47;;;1.20;99.90;;;;;;6187620;23;20518;-77
2021/12/03 05:12:25;;;;;;;18.90;17.40;;;1.20;99.90;;;;;;6187957;23;20492;-77
2021/12/03 05:14:51;;;;;;;19.83;18.27;;;1.20;99.90;;;;;;6214305;23;20502;-77
2021/12/03 05:17:18;;;;;;;18.57;17.17;;;1.20;99.90;;;;;;6213790;23;20393;-77
2021/12/03 05:19:45;;;;;;;19.13;17.70;;;1.20;99.90;;;;;;6214004;23;20427;-77
2021/12/03 05:22:13;;;;;;;19.43;17.93;;;1.20;99.90;;;;;;6187391;23;20914;-77
2021/12/03 05:24:40;;;;;;;19.60;18.20;;;1.20;99.90;;;;;;6187898;23;20417;-76
2021/12/03 05:27:07;;;;;;;18.93;17.43;;;1.10;99.90;;;;;;6212351;23;20419;-77
2021/12/03 05:29:35;;;;;;;19.20;17.70;;;1.10;99.90;;;;;;6212471;23;20431;-77
2021/12/03 05:32:02;;;;;;;19.43;17.93;;;1.10;99.90;;;;;;6212357;23;20415;-76
2021/12/03 05:34:30;;;;;;;18.70;17.30;;;1.00;99.90;;;;;;6187604;23;20415;-77
2021/12/03 05:36:56;;;;;;;18.47;17.17;;;1.00;99.90;;;;;;6213760;23;20392;-77
2021/12/03 05:39:23;;;;;;;18.80;17.43;;;1.00;99.90;;;;;;6213938;23;20407;-77
2021/12/03 05:41:50;;;;;;;19.17;17.37;;;1.00;99.90;;;;;;6213767;23;20426;-77
2021/12/03 05:44:18;;;;;;;18.20;16.90;;;1.00;99.90;;;;;;6212214;23;20971;-77
2021/12/03 05:46:46;;;;;;;19.43;18.00;;;1.00;99.90;;;;;;6186983;23;20774;-77
2021/12/03 05:49:13;;;;;;;18.80;17.50;;;1.00;99.90;;;;;;6212323;23;20451;-77
2021/12/03 05:51:40;;;;;;;19.40;17.90;;;1.10;99.90;;;;;;6187228;23;20421;-78
2021/12/03 05:54:07;;;;;;;19.03;17.57;;;1.10;99.90;;;;;;6213851;23;20397;-77
2021/12/03 05:56:34;;;;;;;18.60;17.17;;;1.10;99.90;;;;;;6213593;23;20445;-77
2021/12/03 05:59:01;;;;;;;18.17;16.67;;;1.10;99.90;;;;;;6213955;23;20387;-77
2021/12/03 06:01:28;;;;;;;18.53;17.13;;;1.10;99.90;;;;;;6212164;23;20425;-77
2021/12/03 06:03:56;;;;;;;17.93;16.53;;;1.10;99.90;;;;;;6213894;23;20386;-77
2021/12/03 06:06:23;;;;;;;19.50;17.70;;;1.10;99.90;;;;;;6213469;23;20450;-77
2021/12/03 06:08:50;;;;;;;18.13;16.73;;;1.00;99.90;;;;;;6213640;23;20391;-77
2021/12/03 06:11:17;;;;;;;17.97;16.43;;;1.00;99.90;;;;;;6213919;23;20394;-77
2021/12/03 06:13:44;;;;;;;18.27;16.97;;;1.00;99.90;;;;;;6187162;23;20469;-77
2021/12/03 06:16:13;;;;;;;18.80;17.27;;;1.10;99.90;;;;;;6186820;23;20425;-77
2021/12/03 06:18:40;;;;;;;19.60;17.83;;;1.10;99.90;;;;;;6215259;23;20392;-76
2021/12/03 06:21:10;;;;;;;19.47;17.87;;;1.10;99.90;;;;;;6211881;23;20443;-77
2021/12/03 06:23:37;;;;;;;18.83;17.43;;;1.10;99.90;;;;;;6213753;23;20497;-77
2021/12/03 06:26:06;;;;;;;18.33;16.93;;;1.10;99.90;;;;;;6187110;23;20408;-77
2021/12/03 06:28:34;;;;;;;19.10;17.57;;;1.10;99.90;;;;;;6213374;23;20395;-77
2021/12/03 06:31:00;;;;;;;19.50;17.87;;;1.10;99.90;;;;;;6213562;23;20478;-77
2021/12/03 06:33:27;;;;;;;18.63;17.23;;;1.10;99.90;;;;;;6213645;23;20383;-77
2021/12/03 06:35:54;;;;;;;17.57;16.37;;;1.10;99.90;;;;;;6212538;23;20479;-77
2021/12/03 06:38:22;;;;;;;18.10;16.53;;;1.10;99.90;;;;;;6213063;23;20392;-77
2021/12/03 06:40:51;;;;;;;18.43;17.00;;;1.10;99.90;;;;;;6213607;23;20902;-77
2021/12/03 06:43:18;;;;;;;17.33;16.03;;;1.10;99.90;;;;;;6186766;23;20509;-77
2021/12/03 06:45:46;;;;;;;18.23;16.90;;;1.10;99.90;;;;;;6187182;23;20476;-77
2021/12/03 06:48:13;;;;;;;18.87;17.47;;;1.10;99.90;;;;;;6189019;23;20803;-77
2021/12/03 06:50:40;;;;;;;18.00;16.60;;;1.10;99.90;;;;;;6214456;23;21002;-78
2021/12/03 06:53:10;;;;;;;19.43;17.80;;;1.10;99.90;;;;;;6188214;23;20415;-78
2021/12/03 06:55:44;;;;;;;18.60;17.30;;;1.10;99.90;;;;;;6213530;23;20820;-77
2021/12/03 06:58:11;;;;;;;18.77;17.20;;;1.00;99.90;;;;;;6213225;23;20412;-77
2021/12/03 07:00:38;;;;;;;17.70;16.40;;;1.10;99.90;;;;;;6213197;23;20469;-77
2021/12/03 07:03:05;;;;;;;18.40;16.80;;;1.00;99.90;;;;;;6214586;23;20458;-77
2021/12/03 07:05:32;;;;;;;18.17;16.57;;;1.00;99.90;;;;;;6214960;23;20389;-77
2021/12/03 07:07:59;;;;;;;17.67;16.30;;;1.00;99.90;;;;;;6214843;23;20743;-77
2021/12/03 07:10:26;;;;;;;17.33;15.93;;;0.90;99.90;;;;;;6215152;23;20410;-77
2021/12/03 07:12:54;;;;;;;17.03;15.63;;;0.90;99.90;;;;;;6213254;23;20415;-77
2021/12/03 07:15:21;;;;;;;18.30;16.90;;;0.80;99.90;;;;;;6214932;23;20941;-77
2021/12/03 07:17:50;;;;;;;18.53;16.93;;;0.80;99.90;;;;;;6214547;23;20395;-77
2021/12/03 07:20:18;;;;;;;17.13;15.83;;;0.70;99.90;;;;;;6189159;23;20440;-77
2021/12/03 07:22:45;;;;;;;18.50;16.97;;;0.70;99.90;;;;;;6214814;23;20909;-78
2021/12/03 07:25:12;;;;;;;17.60;16.23;;;0.70;99.90;;;;;;6188365;23;20430;-77
2021/12/03 07:27:40;;;;;;;18.63;16.97;;;0.70;99.90;;;;;;6214447;23;20870;-77
2021/12/03 07:30:11;;;;;;;18.40;16.90;;;0.70;99.90;;;;;;6189652;23;20430;-78
2021/12/03 07:32:39;;;;;;;17.80;16.43;;;0.70;99.90;;;;;;6216334;23;20379;-77
2021/12/03 07:35:07;;;;;;;19.23;17.30;;;0.60;99.90;;;;;;6216873;23;20384;-77
2021/12/03 07:37:35;;;;;;;18.20;16.77;;;0.60;99.90;;;;;;6189757;23;20460;-77
2021/12/03 07:40:03;;;;;;;18.10;16.60;;;0.70;99.90;;;;;;6189601;23;20932;-77
2021/12/03 07:42:30;;;;;;;18.37;16.90;;;0.70;99.90;;;;;;6215359;23;20484;-77
2021/12/03 07:44:56;;;;;;;18.77;17.17;;;0.70;99.90;;;;;;6216557;23;20394;-77
2021/12/03 07:47:25;;;;;;;18.87;17.33;;;0.80;99.90;;;;;;6214615;23;20418;-77
2021/12/03 07:49:52;;;;;;;18.43;16.67;;;1.00;99.90;;;;;;6189734;23;20929;-77
2021/12/03 07:52:20;;;;;;;18.30;16.60;;;1.10;99.90;;;;;;6190292;23;20442;-77
2021/12/03 07:54:47;;;;;;;17.80;16.47;;;1.20;99.90;;;;;;6216581;23;20392;-77
2021/12/03 07:57:14;;;;;;;18.53;17.07;;;1.40;99.90;;;;;;6189341;23;20756;-77
2021/12/03 07:59:41;;;;;;;17.80;16.47;;;1.60;99.90;;;;;;6189500;23;20434;-77
2021/12/03 08:02:08;;;;;;;17.63;16.20;;;1.80;99.90;;;;;;6189580;23;20446;-78
2021/12/03 08:04:36;;;;;;;18.47;16.97;;;2.10;99.90;;;;;;6216493;23;20444;-77
2021/12/03 08:07:03;;;;;;;17.83;16.53;;;2.50;99.90;;;;;;6216268;23;20384;-77
2021/12/03 08:09:30;;;;;;;15.57;14.37;;;2.80;99.90;;;;;;6215906;23;20460;-77
2021/12/03 08:11:57;;;;;;;14.27;13.07;;;3.20;99.90;;;;;;6214841;23;20896;-79
2021/12/03 08:14:23;;;;;;;14.07;12.70;;;3.60;99.90;;;;;;6214829;23;20405;-77
2021/12/03 08:16:50;;;;;;;13.37;12.30;;;3.90;99.90;;;;;;6214513;23;20473;-78
2021/12/03 08:19:17;;;;;;;8.90;8.00;;;3.90;99.90;;;;;;6216640;23;20425;-77
2021/12/03 08:21:45;;;;;;;12.03;11.13;;;4.00;99.90;;;;;;6216149;23;20759;-77
2021/12/03 08:24:12;;;;;;;12.10;11.20;;;4.10;99.90;;;;;;6216557;23;20430;-78
2021/12/03 08:26:39;;;;;;;13.57;12.40;;;4.10;99.90;;;;;;6215952;23;20177;-77
2021/12/03 08:29:06;;;;;;;15.03;13.83;;;4.20;99.90;;;;;;6216776;23;20164;-78
2021/12/03 08:31:34;;;;;;;13.03;12.03;;;4.10;99.90;;;;;;6216122;23;20170;-78
2021/12/03 08:34:01;;;;;;;14.27;13.37;;;4.20;99.90;;;;;;6215552;23;20688;-78
2021/12/03 08:36:27;;;;;;;7.53;6.30;;;4.20;99.90;;;;;;6215401;23;20167;-77
2021/12/03 08:38:56;;;;;;;6.63;5.43;;;4.20;99.90;;;;;;6188835;23;20176;-78
2021/12/03 08:41:23;;;;;;;13.50;12.43;;;4.30;99.90;;;;;;6188852;23;20203;-78
2021/12/03 08:43:51;;;;;;;12.33;11.27;;;4.30;99.90;;;;;;6215618;23;20565;-77
2021/12/03 08:46:22;;;;;;;12.00;11.10;;;4.20;99.90;;;;;;6215303;23;20222;-78
2021/12/03 08:48:49;;;;;;;14.10;12.83;;;4.10;99.90;;;;;;6215183;23;20155;-77
2021/12/03 08:56:52;;;;;;;13.93;12.73;;;3.20;99.90;;;;;;6215200;23;20148;-77
2021/12/03 08:59:19;;;;;;;14.00;13.00;;;3.00;99.90;;;;;;6213302;23;20191;-78
2021/12/03 09:01:46;;;;;;;14.00;12.90;;;3.20;99.90;;;;;;6215870;23;20654;-77
2021/12/03 09:04:14;;;;;;;13.87;12.97;;;3.40;99.90;;;;;;6216708;23;20229;-78
2021/12/03 09:06:41;;;;;;;13.47;12.57;;;3.40;99.90;;;;;;6213967;23;20492;-78
2021/12/03 09:09:09;;;;;;;12.80;12.00;;;3.40;99.90;;;;;;6215826;23;20167;-77
2021/12/03 09:11:36;;;;;;;12.87;11.87;;;3.40;99.90;;;;;;6216348;23;20226;-78
2021/12/03 09:14:11;;;;;;;13.20;12.30;;;3.30;99.90;;;;;;6213984;23;20174;-78
2021/12/03 09:16:38;;;;;;;13.67;12.57;;;3.30;99.90;;;;;;6215894;23;20156;-78
2021/12/03 09:19:11;;;;;;;13.47;12.47;;;3.20;99.90;;;;;;6215679;23;20645;-77
2021/12/03 09:21:38;;;;;;;15.37;13.37;;;3.10;99.90;;;;;;6189231;23;20258;-78
2021/12/03 09:24:11;;;;;;;13.40;12.40;;;3.10;99.90;;;;;;6214512;23;20538;-78
2021/12/03 09:26:41;;;;;;;12.90;11.93;;;3.10;99.90;;;;;;6213766;23;20240;-77
2021/12/03 09:29:10;;;;;;;13.47;12.37;;;3.00;99.90;;;;;;6215773;23;20164;-77
2021/12/03 09:31:41;;;;;;;14.47;13.37;;;3.00;99.90;;;;;;6214644;23;20750;-77
2021/12/03 09:34:10;;;;;;;14.57;13.30;;;2.90;99.90;;;;;;6189059;23;20155;-77
2021/12/03 09:36:40;;;;;;;14.60;13.60;;;2.90;99.90;;;;;;6215618;23;20171;-78
2021/12/03 09:39:09;;;;;;;13.70;12.80;;;2.90;99.90;;;;;;6215745;23;20168;-77
2021/12/03 09:41:36;;;;;;;14.13;13.23;;;2.90;99.90;;;;;;6189112;23;20630;-77
2021/12/03 09:44:05;;;;;;;14.20;13.30;;;2.90;99.90;;;;;;6215642;23;20480;-78
2021/12/03 09:46:32;;;;;;;13.80;12.80;;;2.90;99.90;;;;;;6189127;23;20501;-78
2021/12/03 09:51:49;;;;;;;14.23;13.13;;;2.90;99.90;;;;;;6214633;23;20179;-77
2021/12/03 09:54:30;;;;;;;14.37;13.37;;;2.90;99.90;;;;;;6189168;23;20250;-78
2021/12/03 09:57:02;;;;;;;14.30;13.30;;;2.90;99.90;;;;;;6188903;23;20228;-77
2021/12/03 10:02:25;;;;;;;14.67;13.50;;;2.90;99.90;;;;;;6188469;23;20407;-77
2021/12/03 10:05:16;;;;;;;14.33;13.23;;;2.80;99.90;;;;;;6215696;23;20574;-77
2021/12/03 10:13:21;;;;;;;14.47;13.30;;;2.90;99.90;;;;;;6188739;23;20471;-77
2021/12/03 10:16:00;;;;;;;14.80;13.70;;;2.90;99.90;;;;;;6188997;23;20419;-77
2021/12/03 10:18:39;;;;;;;13.90;12.80;;;2.90;99.90;;;;;;6215169;23;20461;-78
2021/12/03 10:21:12;;;;;;;14.37;13.37;;;2.90;99.90;;;;;;6216314;23;20253;-78
2021/12/03 10:32:26;;;;;;;14.03;13.03;;;3.00;99.90;;;;;;6187801;23;20402;-77
2021/12/03 10:38:09;;;;;;;13.73;12.80;;;3.10;99.90;;;;;;6215365;23;20371;-77
2021/12/03 10:43:46;;;;;;;15.17;13.97;;;3.10;99.90;;;;;;6187849;23;20766;-77
2021/12/03 10:46:33;;;;;;;14.83;13.83;;;3.10;99.90;;;;;;6215185;23;20155;-78
2021/12/03 10:49:14;;;;;;;14.80;13.57;;;3.20;99.90;;;;;;6188669;23;20410;-77
2021/12/03 10:54:54;;;;;;;15.20;14.10;;;3.30;99.90;;;;;;6180867;23;20406;-78
2021/12/03 11:34:25;;;;;;;12.13;11.40;;;3.50;99.90;;;;;;5108921;28;20300;-78
2021/12/03 13:14:26;;;;;;;11.20;10.40;;;4.50;99.90;;;;;;5038000;28;20201;-77
2021/12/03 14:08:22;;;;;;;11.07;10.27;;;4.00;99.90;;;;;;5089747;28;20253;-78
2021/12/03 14:42:22;;;;;;;11.27;10.47;;;3.90;99.90;;;;;;5078249;28;20233;-79
2021/12/03 14:44:58;;;;;;;11.43;10.60;;;3.90;99.90;;;;;;5097832;28;20732;-79
2021/12/03 14:50:48;;;;;;;11.17;10.30;;;3.80;99.90;;;;;;5067348;28;20455;-79
2021/12/03 14:53:38;;;;;;;10.63;9.93;;;3.90;99.90;;;;;;5093225;28;20190;-77
2021/12/03 14:56:08;;;;;;;10.23;9.57;;;3.90;99.90;;;;;;5092446;28;20194;-78
2021/12/03 14:58:47;;;;;;;10.50;9.80;;;3.80;99.90;;;;;;5078145;28;20201;-79
2021/12/03 15:01:21;;;;;;;9.90;9.30;;;3.80;99.90;;;;;;5125035;27;20217;-78
2021/12/03 15:04:12;;;;;;;10.23;9.43;;;3.80;99.90;;;;;;5087102;28;20213;-80
2021/12/03 15:06:42;;;;;;;9.70;9.00;;;3.80;99.90;;;;;;5085883;28;20205;-81
2021/12/03 15:09:13;;;;;;;10.17;9.47;;;3.70;99.90;;;;;;5084769;28;20197;-78
2021/12/03 15:20:25;;;;;;;11.57;10.63;;;3.50;99.90;;;;;;5093416;28;20214;-80
2021/12/03 15:25:47;;;;;;;9.80;9.20;;;3.40;99.90;;;;;;5089085;28;20236;-78
2021/12/03 15:31:17;;;;;;;11.17;10.47;;;3.20;99.90;;;;;;5054385;28;20232;-80
2021/12/03 15:33:51;;;;;;;12.27;11.27;;;3.20;99.90;;;;;;5091394;28;20194;-80
2021/12/03 15:36:25;;;;;;;12.33;11.40;;;3.20;99.90;;;;;;5093172;28;20655;-79
2021/12/03 15:56:09;;;;;;;11.77;10.70;;;2.90;99.90;;;;;;4992426;28;20451;-77
2021/12/03 16:04:18;;;;;;;11.17;10.47;;;2.90;99.90;;;;;;5090657;28;20200;-78
2021/12/03 16:06:55;;;;;;;12.03;11.03;;;2.90;99.90;;;;;;5091548;28;20450;-78
2021/12/03 16:09:45;;;;;;;10.80;10.10;;;2.90;99.90;;;;;;5095257;28;20899;-80
2021/12/03 16:12:21;;;;;;;11.27;10.43;;;2.80;99.90;;;;;;5098219;28;20424;-80
2021/12/03 16:15:12;;;;;;;12.10;11.10;;;2.80;99.90;;;;;;5095314;28;20462;-80
2021/12/03 16:21:06;;;;;;;12.07;11.17;;;2.70;99.90;;;;;;5026401;28;20454;-78
2021/12/03 16:23:48;;;;;;;11.10;10.40;;;2.60;99.90;;;;;;5085378;28;20900;-78
2021/12/03 16:26:33;;;;;;;12.20;11.30;;;2.60;99.90;;;;;;5094786;28;20522;-78
2021/12/03 16:45:45;;;;;;;14.00;12.87;;;2.70;99.90;;;;;;5093103;28;20981;-77
2021/12/03 16:49:02;;;;;;;13.93;12.83;;;2.70;99.90;;;;;;5095342;28;20486;-78
2021/12/03 16:51:31;;;;;;;13.10;12.00;;;2.70;99.90;;;;;;5092259;28;20451;-78
2021/12/03 16:54:05;;;;;;;12.93;12.10;;;2.70;99.90;;;;;;5090058;28;20513;-78
2021/12/03 16:56:32;;;;;;;12.63;11.83;;;2.70;99.90;;;;;;5109244;28;20448;-78
2021/12/03 16:59:00;;;;;;;14.47;13.27;;;2.70;99.90;;;;;;5094188;28;20948;-79
2021/12/03 17:01:33;;;;;;;14.87;13.67;;;2.80;99.90;;;;;;5094320;28;20481;-78
2021/12/03 17:04:06;;;;;;;13.30;12.10;;;2.70;99.90;;;;;;5093540;28;20504;-78
2021/12/03 17:09:45;;;;;;;14.70;13.50;;;2.80;99.90;;;;;;5056396;28;20583;-78
2021/12/03 17:12:17;;;;;;;13.83;12.77;;;2.80;99.90;;;;;;5092756;28;20542;-79
2021/12/03 17:15:00;;;;;;;13.17;12.10;;;2.80;99.90;;;;;;5092794;28;20900;-79
2021/12/03 17:26:43;;;;;;;13.63;12.53;;;2.80;99.90;;;;;;5091964;28;20803;-80
2021/12/03 17:48:46;;;;;;;11.93;11.13;;;2.50;99.90;;;;;;4947898;28;20493;-80
2021/12/03 17:51:42;;;;;;;12.17;11.13;;;2.50;99.90;;;;;;5022974;28;20457;-80
2021/12/03 17:54:25;;;;;;;11.67;10.87;;;2.50;99.90;;;;;;5027394;28;20534;-81
2021/12/03 17:56:53;;;;;;;12.10;11.30;;;2.50;99.90;;;;;;5042325;28;20464;-81
2021/12/03 17:59:22;;;;;;;12.90;12.00;;;2.50;99.90;;;;;;5032084;28;20500;-79
2021/12/03 18:01:54;;;;;;;13.20;11.90;;;2.50;99.90;;;;;;5025542;28;20470;-79
2021/12/03 18:04:37;;;;;;;13.30;12.23;;;2.50;99.90;;;;;;5023794;28;20458;-78
2021/12/03 18:13:08;;;;;;;12.67;11.77;;;2.50;99.90;;;;;;5038021;28;20426;-79
2021/12/03 18:49:05;;;;;;;13.50;12.40;;;2.30;99.90;;;;;;4993141;28;20514;-80
2021/12/03 18:51:38;;;;;;;13.80;12.70;;;2.40;99.90;;;;;;5021492;28;20442;-79
2021/12/03 18:54:23;;;;;;;13.70;12.53;;;2.50;99.90;;;;;;5019263;28;20869;-80
2021/12/03 18:56:51;;;;;;;13.57;12.47;;;2.50;99.90;;;;;;5014243;28;20465;-80
2021/12/03 18:59:20;;;;;;;13.13;12.13;;;2.60;99.90;;;;;;5035264;28;20446;-79
2021/12/03 19:01:47;;;;;;;13.83;12.73;;;2.60;99.90;;;;;;5030433;28;20891;-79
2021/12/03 19:04:22;;;;;;;12.30;11.40;;;2.60;99.90;;;;;;5034280;28;20455;-78
2021/12/03 19:06:52;;;;;;;13.73;12.53;;;2.70;99.90;;;;;;5034551;28;20469;-79
2021/12/03 19:09:24;;;;;;;13.10;12.10;;;2.70;99.90;;;;;;5032932;28;20864;-80
2021/12/03 19:11:56;;;;;;;12.93;11.90;;;2.70;99.90;;;;;;5030518;28;20446;-80
2021/12/03 19:14:24;;;;;;;12.90;12.00;;;2.80;99.90;;;;;;5019802;28;20457;-79